sensor_id;sensor_type;location;lat;lon;timestamp;temperature;humidity
52575;DHT22;38468;48.114;-1.684;2023-02-04T00:00:36;10.60;64.90
52575;DHT22;38468;48.114;-1.684;2023-02-04T00:02:39;10.60;64.90
52575;DHT22;38468;48.114;-1.684;2023-02-04T00:04:40;10.60;65.00
52575;DHT22;38468;48.114;-1.684;2023-02-04T00:06:40;10.60;65.00
52575;DHT22;38468;48.114;-1.684;2023-02-04T00:08:41;10.50;64.80
52575;DHT22;38468;48.114;-1.684;2023-02-04T00:10:41;10.50;64.90
52575;DHT22;38468;48.114;-1.684;2023-02-04T00:12:42;10.60;64.90
52575;DHT22;38468;48.114;-1.684;2023-02-04T00:14:43;10.50;64.80
52575;DHT22;38468;48.114;-1.684;2023-02-04T00:16:43;10.50;65.00
52575;DHT22;38468;48.114;-1.684;2023-02-04T00:18:44;10.50;64.90
52575;DHT22;38468;48.114;-1.684;2023-02-04T00:20:45;10.50;64.80
52575;DHT22;38468;48.114;-1.684;2023-02-04T00:22:45;10.50;64.80
52575;DHT22;38468;48.114;-1.684;2023-02-04T00:24:46;10.50;64.70
52575;DHT22;38468;48.114;-1.684;2023-02-04T00:26:49;10.50;64.90
52575;DHT22;38468;48.114;-1.684;2023-02-04T00:28:49;10.50;64.80
52575;DHT22;38468;48.114;-1.684;2023-02-04T00:30:50;10.50;64.90
52575;DHT22;38468;48.114;-1.684;2023-02-04T00:32:51;10.50;64.90
52575;DHT22;38468;48.114;-1.684;2023-02-04T00:34:54;10.60;64.90
52575;DHT22;38468;48.114;-1.684;2023-02-04T00:36:54;10.50;64.80
52575;DHT22;38468;48.114;-1.684;2023-02-04T00:38:55;10.50;64.90
52575;DHT22;38468;48.114;-1.684;2023-02-04T00:40:56;10.50;64.90
52575;DHT22;38468;48.114;-1.684;2023-02-04T00:42:56;10.40;64.80
52575;DHT22;38468;48.114;-1.684;2023-02-04T00:44:57;10.40;64.90
52575;DHT22;38468;48.114;-1.684;2023-02-04T00:46:58;10.40;64.90
52575;DHT22;38468;48.114;-1.684;2023-02-04T00:48:58;10.50;64.90
52575;DHT22;38468;48.114;-1.684;2023-02-04T00:50:59;10.50;64.90
52575;DHT22;38468;48.114;-1.684;2023-02-04T00:53:00;10.50;64.80
52575;DHT22;38468;48.114;-1.684;2023-02-04T00:55:01;10.40;64.60
52575;DHT22;38468;48.114;-1.684;2023-02-04T00:57:02;10.40;64.80
52575;DHT22;38468;48.114;-1.684;2023-02-04T00:59:02;10.50;64.80
52575;DHT22;38468;48.114;-1.684;2023-02-04T01:01:03;10.50;64.80
52575;DHT22;38468;48.114;-1.684;2023-02-04T01:03:04;10.40;64.80
52575;DHT22;38468;48.114;-1.684;2023-02-04T01:05:06;10.50;64.90
52575;DHT22;38468;48.114;-1.684;2023-02-04T01:07:07;10.50;65.00
52575;DHT22;38468;48.114;-1.684;2023-02-04T01:09:08;10.40;64.80
52575;DHT22;38468;48.114;-1.684;2023-02-04T01:11:09;10.40;64.90
52575;DHT22;38468;48.114;-1.684;2023-02-04T01:13:10;10.40;64.90
52575;DHT22;38468;48.114;-1.684;2023-02-04T01:15:10;10.40;64.90
52575;DHT22;38468;48.114;-1.684;2023-02-04T01:17:11;10.40;65.00
52575;DHT22;38468;48.114;-1.684;2023-02-04T01:19:12;10.40;64.70
52575;DHT22;38468;48.114;-1.684;2023-02-04T01:21:12;10.40;64.80
52575;DHT22;38468;48.114;-1.684;2023-02-04T01:23:13;10.40;64.80
52575;DHT22;38468;48.114;-1.684;2023-02-04T01:25:14;10.40;64.80
52575;DHT22;38468;48.114;-1.684;2023-02-04T01:27:14;10.50;64.80
52575;DHT22;38468;48.114;-1.684;2023-02-04T01:29:15;10.50;64.80
52575;DHT22;38468;48.114;-1.684;2023-02-04T01:31:16;10.40;64.90
52575;DHT22;38468;48.114;-1.684;2023-02-04T01:33:17;10.40;64.90
52575;DHT22;38468;48.114;-1.684;2023-02-04T01:35:17;10.40;64.70
52575;DHT22;38468;48.114;-1.684;2023-02-04T01:37:18;10.40;64.90
52575;DHT22;38468;48.114;-1.684;2023-02-04T01:39:18;10.40;64.90
52575;DHT22;38468;48.114;-1.684;2023-02-04T01:41:19;10.40;65.00
52575;DHT22;38468;48.114;-1.684;2023-02-04T01:43:20;10.40;65.00
52575;DHT22;38468;48.114;-1.684;2023-02-04T01:45:22;10.40;65.10
52575;DHT22;38468;48.114;-1.684;2023-02-04T01:47:23;10.40;65.00
52575;DHT22;38468;48.114;-1.684;2023-02-04T01:49:25;10.40;65.00
52575;DHT22;38468;48.114;-1.684;2023-02-04T01:51:27;10.40;64.80
52575;DHT22;38468;48.114;-1.684;2023-02-04T01:53:30;10.40;64.90
52575;DHT22;38468;48.114;-1.684;2023-02-04T01:55:31;10.40;65.00
52575;DHT22;38468;48.114;-1.684;2023-02-04T01:57:33;10.40;64.90
52575;DHT22;38468;48.114;-1.684;2023-02-04T01:59:34;10.40;65.00
52575;DHT22;38468;48.114;-1.684;2023-02-04T02:01:37;10.40;64.90
52575;DHT22;38468;48.114;-1.684;2023-02-04T02:03:40;10.40;65.10
52575;DHT22;38468;48.114;-1.684;2023-02-04T02:05:46;10.40;65.00
52575;DHT22;38468;48.114;-1.684;2023-02-04T02:07:50;10.40;64.80
52575;DHT22;38468;48.114;-1.684;2023-02-04T02:09:52;10.40;65.20
52575;DHT22;38468;48.114;-1.684;2023-02-04T02:11:53;10.40;65.30
52575;DHT22;38468;48.114;-1.684;2023-02-04T02:13:53;10.40;65.30
52575;DHT22;38468;48.114;-1.684;2023-02-04T02:15:54;10.40;65.20
52575;DHT22;38468;48.114;-1.684;2023-02-04T02:17:55;10.40;65.10
52575;DHT22;38468;48.114;-1.684;2023-02-04T02:19:56;10.40;65.10
52575;DHT22;38468;48.114;-1.684;2023-02-04T02:22:02;10.40;65.30
52575;DHT22;38468;48.114;-1.684;2023-02-04T02:24:27;10.40;65.30
52575;DHT22;38468;48.114;-1.684;2023-02-04T02:26:28;10.30;65.40
52575;DHT22;38468;48.114;-1.684;2023-02-04T02:28:29;10.30;65.50
52575;DHT22;38468;48.114;-1.684;2023-02-04T02:30:29;10.30;65.30
52575;DHT22;38468;48.114;-1.684;2023-02-04T02:32:30;10.30;65.30
52575;DHT22;38468;48.114;-1.684;2023-02-04T02:34:32;10.30;65.40
52575;DHT22;38468;48.114;-1.684;2023-02-04T02:36:32;10.40;65.40
52575;DHT22;38468;48.114;-1.684;2023-02-04T02:38:33;10.30;65.20
52575;DHT22;38468;48.114;-1.684;2023-02-04T02:40:34;10.30;65.30
52575;DHT22;38468;48.114;-1.684;2023-02-04T02:42:35;10.30;65.40
52575;DHT22;38468;48.114;-1.684;2023-02-04T02:44:36;10.30;65.40
52575;DHT22;38468;48.114;-1.684;2023-02-04T02:46:37;10.30;65.40
52575;DHT22;38468;48.114;-1.684;2023-02-04T02:48:38;10.30;65.50
52575;DHT22;38468;48.114;-1.684;2023-02-04T02:50:39;10.20;65.60
52575;DHT22;38468;48.114;-1.684;2023-02-04T02:52:40;10.20;65.40
52575;DHT22;38468;48.114;-1.684;2023-02-04T02:54:41;10.20;65.60
52575;DHT22;38468;48.114;-1.684;2023-02-04T02:56:42;10.20;65.50
52575;DHT22;38468;48.114;-1.684;2023-02-04T02:58:42;10.20;65.50
52575;DHT22;38468;48.114;-1.684;2023-02-04T03:00:43;10.30;65.40
52575;DHT22;38468;48.114;-1.684;2023-02-04T03:02:52;10.30;65.50
52575;DHT22;38468;48.114;-1.684;2023-02-04T03:04:55;10.30;65.50
52575;DHT22;38468;48.114;-1.684;2023-02-04T03:06:58;10.30;65.40
52575;DHT22;38468;48.114;-1.684;2023-02-04T03:08:59;10.20;65.30
52575;DHT22;38468;48.114;-1.684;2023-02-04T03:11:00;10.20;65.40
52575;DHT22;38468;48.114;-1.684;2023-02-04T03:13:01;10.30;65.40
52575;DHT22;38468;48.114;-1.684;2023-02-04T03:15:03;10.20;65.40
52575;DHT22;38468;48.114;-1.684;2023-02-04T03:17:06;10.30;65.40
52575;DHT22;38468;48.114;-1.684;2023-02-04T03:19:08;10.30;65.40
52575;DHT22;38468;48.114;-1.684;2023-02-04T03:21:09;10.30;65.30
52575;DHT22;38468;48.114;-1.684;2023-02-04T03:23:11;10.30;65.50
52575;DHT22;38468;48.114;-1.684;2023-02-04T03:25:11;10.30;65.50
52575;DHT22;38468;48.114;-1.684;2023-02-04T03:27:14;10.30;65.30
52575;DHT22;38468;48.114;-1.684;2023-02-04T03:29:14;10.40;65.40
52575;DHT22;38468;48.114;-1.684;2023-02-04T03:31:15;10.40;65.30
52575;DHT22;38468;48.114;-1.684;2023-02-04T03:33:16;10.30;65.40
52575;DHT22;38468;48.114;-1.684;2023-02-04T03:35:17;10.40;65.40
52575;DHT22;38468;48.114;-1.684;2023-02-04T03:37:18;10.30;65.30
52575;DHT22;38468;48.114;-1.684;2023-02-04T03:39:18;10.30;65.50
52575;DHT22;38468;48.114;-1.684;2023-02-04T03:41:19;10.30;65.50
52575;DHT22;38468;48.114;-1.684;2023-02-04T03:43:20;10.30;65.40
52575;DHT22;38468;48.114;-1.684;2023-02-04T03:45:20;10.30;65.40
52575;DHT22;38468;48.114;-1.684;2023-02-04T03:47:21;10.30;65.50
52575;DHT22;38468;48.114;-1.684;2023-02-04T03:49:22;10.30;65.50
52575;DHT22;38468;48.114;-1.684;2023-02-04T03:51:23;10.30;65.50
52575;DHT22;38468;48.114;-1.684;2023-02-04T03:53:24;10.20;65.40
52575;DHT22;38468;48.114;-1.684;2023-02-04T03:55:24;10.20;65.40
52575;DHT22;38468;48.114;-1.684;2023-02-04T03:57:25;10.20;65.60
52575;DHT22;38468;48.114;-1.684;2023-02-04T03:59:26;10.20;65.50
52575;DHT22;38468;48.114;-1.684;2023-02-04T04:01:27;10.20;65.60
52575;DHT22;38468;48.114;-1.684;2023-02-04T04:03:27;10.30;65.50
52575;DHT22;38468;48.114;-1.684;2023-02-04T04:05:28;10.30;65.40
52575;DHT22;38468;48.114;-1.684;2023-02-04T04:07:29;10.30;65.40
52575;DHT22;38468;48.114;-1.684;2023-02-04T04:09:29;10.20;65.00
52575;DHT22;38468;48.114;-1.684;2023-02-04T04:11:31;10.20;65.40
52575;DHT22;38468;48.114;-1.684;2023-02-04T04:13:31;10.20;65.50
52575;DHT22;38468;48.114;-1.684;2023-02-04T04:15:32;10.30;65.50
52575;DHT22;38468;48.114;-1.684;2023-02-04T04:17:33;10.30;65.40
52575;DHT22;38468;48.114;-1.684;2023-02-04T04:19:33;10.30;65.60
52575;DHT22;38468;48.114;-1.684;2023-02-04T04:21:34;10.30;65.50
52575;DHT22;38468;48.114;-1.684;2023-02-04T04:23:35;10.30;65.60
52575;DHT22;38468;48.114;-1.684;2023-02-04T04:25:36;10.20;65.50
52575;DHT22;38468;48.114;-1.684;2023-02-04T04:27:36;10.20;65.80
52575;DHT22;38468;48.114;-1.684;2023-02-04T04:29:37;10.10;66.00
52575;DHT22;38468;48.114;-1.684;2023-02-04T04:31:38;10.20;66.10
52575;DHT22;38468;48.114;-1.684;2023-02-04T04:33:38;10.20;66.10
52575;DHT22;38468;48.114;-1.684;2023-02-04T04:35:39;10.30;66.00
52575;DHT22;38468;48.114;-1.684;2023-02-04T04:37:40;10.20;65.90
52575;DHT22;38468;48.114;-1.684;2023-02-04T04:39:40;10.30;66.00
52575;DHT22;38468;48.114;-1.684;2023-02-04T04:41:41;10.20;65.90
52575;DHT22;38468;48.114;-1.684;2023-02-04T04:43:42;10.30;66.00
52575;DHT22;38468;48.114;-1.684;2023-02-04T04:45:42;10.30;65.90
52575;DHT22;38468;48.114;-1.684;2023-02-04T04:47:43;10.20;66.00
52575;DHT22;38468;48.114;-1.684;2023-02-04T04:49:43;10.30;66.00
52575;DHT22;38468;48.114;-1.684;2023-02-04T04:51:44;10.30;65.90
52575;DHT22;38468;48.114;-1.684;2023-02-04T04:53:45;10.30;65.90
52575;DHT22;38468;48.114;-1.684;2023-02-04T04:55:45;10.20;65.90
52575;DHT22;38468;48.114;-1.684;2023-02-04T04:57:46;10.20;65.90
52575;DHT22;38468;48.114;-1.684;2023-02-04T04:59:47;10.10;66.30
52575;DHT22;38468;48.114;-1.684;2023-02-04T05:01:47;10.10;66.20
52575;DHT22;38468;48.114;-1.684;2023-02-04T05:03:48;10.10;66.30
52575;DHT22;38468;48.114;-1.684;2023-02-04T05:05:48;10.20;66.40
52575;DHT22;38468;48.114;-1.684;2023-02-04T05:07:49;10.20;66.40
52575;DHT22;38468;48.114;-1.684;2023-02-04T05:09:50;10.20;66.40
52575;DHT22;38468;48.114;-1.684;2023-02-04T05:11:50;10.20;66.40
52575;DHT22;38468;48.114;-1.684;2023-02-04T05:13:51;10.30;66.40
52575;DHT22;38468;48.114;-1.684;2023-02-04T05:15:52;10.20;66.30
52575;DHT22;38468;48.114;-1.684;2023-02-04T05:17:52;10.30;66.20
52575;DHT22;38468;48.114;-1.684;2023-02-04T05:19:53;10.30;66.30
52575;DHT22;38468;48.114;-1.684;2023-02-04T05:21:53;10.20;66.20
52575;DHT22;38468;48.114;-1.684;2023-02-04T05:23:54;10.20;66.30
52575;DHT22;38468;48.114;-1.684;2023-02-04T05:25:55;10.20;66.30
52575;DHT22;38468;48.114;-1.684;2023-02-04T05:27:55;10.20;66.40
52575;DHT22;38468;48.114;-1.684;2023-02-04T05:29:56;10.20;66.40
52575;DHT22;38468;48.114;-1.684;2023-02-04T05:31:57;10.20;66.50
52575;DHT22;38468;48.114;-1.684;2023-02-04T05:33:57;10.20;66.50
52575;DHT22;38468;48.114;-1.684;2023-02-04T05:35:58;10.10;66.80
52575;DHT22;38468;48.114;-1.684;2023-02-04T05:37:58;10.20;66.70
52575;DHT22;38468;48.114;-1.684;2023-02-04T05:39:59;10.10;66.80
52575;DHT22;38468;48.114;-1.684;2023-02-04T05:42:00;10.20;66.90
52575;DHT22;38468;48.114;-1.684;2023-02-04T05:44:00;10.20;66.90
52575;DHT22;38468;48.114;-1.684;2023-02-04T05:46:01;10.20;66.90
52575;DHT22;38468;48.114;-1.684;2023-02-04T05:48:02;10.20;66.90
52575;DHT22;38468;48.114;-1.684;2023-02-04T05:50:03;10.10;66.90
52575;DHT22;38468;48.114;-1.684;2023-02-04T05:52:04;10.10;67.20
52575;DHT22;38468;48.114;-1.684;2023-02-04T05:54:04;10.10;67.10
52575;DHT22;38468;48.114;-1.684;2023-02-04T05:56:05;10.00;67.40
52575;DHT22;38468;48.114;-1.684;2023-02-04T05:58:06;10.00;67.50
52575;DHT22;38468;48.114;-1.684;2023-02-04T06:00:07;10.00;67.60
52575;DHT22;38468;48.114;-1.684;2023-02-04T06:02:08;10.00;67.70
52575;DHT22;38468;48.114;-1.684;2023-02-04T06:04:09;10.10;67.70
52575;DHT22;38468;48.114;-1.684;2023-02-04T06:06:10;10.00;67.80
52575;DHT22;38468;48.114;-1.684;2023-02-04T06:08:10;10.00;68.00
52575;DHT22;38468;48.114;-1.684;2023-02-04T06:10:11;10.00;68.10
52575;DHT22;38468;48.114;-1.684;2023-02-04T06:12:11;10.00;68.20
52575;DHT22;38468;48.114;-1.684;2023-02-04T06:14:12;10.00;68.20
52575;DHT22;38468;48.114;-1.684;2023-02-04T06:16:13;10.00;68.30
52575;DHT22;38468;48.114;-1.684;2023-02-04T06:18:13;10.00;68.40
52575;DHT22;38468;48.114;-1.684;2023-02-04T06:20:14;10.00;68.30
52575;DHT22;38468;48.114;-1.684;2023-02-04T06:22:15;9.90;68.40
52575;DHT22;38468;48.114;-1.684;2023-02-04T06:24:16;9.90;68.70
52575;DHT22;38468;48.114;-1.684;2023-02-04T06:26:17;9.90;68.80
52575;DHT22;38468;48.114;-1.684;2023-02-04T06:28:17;9.90;69.00
52575;DHT22;38468;48.114;-1.684;2023-02-04T06:30:18;9.90;68.80
52575;DHT22;38468;48.114;-1.684;2023-02-04T06:32:20;9.90;69.10
52575;DHT22;38468;48.114;-1.684;2023-02-04T06:34:20;9.90;69.00
52575;DHT22;38468;48.114;-1.684;2023-02-04T06:36:21;9.90;69.20
52575;DHT22;38468;48.114;-1.684;2023-02-04T06:38:22;9.90;69.10
52575;DHT22;38468;48.114;-1.684;2023-02-04T06:40:22;9.90;69.10
52575;DHT22;38468;48.114;-1.684;2023-02-04T06:42:24;9.90;69.20
52575;DHT22;38468;48.114;-1.684;2023-02-04T06:44:24;10.00;69.20
52575;DHT22;38468;48.114;-1.684;2023-02-04T06:46:25;9.90;69.20
52575;DHT22;38468;48.114;-1.684;2023-02-04T06:48:26;9.90;69.30
52575;DHT22;38468;48.114;-1.684;2023-02-04T06:50:26;10.00;69.50
52575;DHT22;38468;48.114;-1.684;2023-02-04T06:52:27;10.00;69.30
52575;DHT22;38468;48.114;-1.684;2023-02-04T06:54:28;10.00;69.30
52575;DHT22;38468;48.114;-1.684;2023-02-04T06:56:28;10.00;69.40
52575;DHT22;38468;48.114;-1.684;2023-02-04T06:58:29;9.90;69.40
52575;DHT22;38468;48.114;-1.684;2023-02-04T07:00:30;9.90;69.70
52575;DHT22;38468;48.114;-1.684;2023-02-04T07:02:30;9.90;69.60
52575;DHT22;38468;48.114;-1.684;2023-02-04T07:04:31;9.90;69.70
52575;DHT22;38468;48.114;-1.684;2023-02-04T07:06:32;9.90;69.80
52575;DHT22;38468;48.114;-1.684;2023-02-04T07:08:32;9.90;69.80
52575;DHT22;38468;48.114;-1.684;2023-02-04T07:10:33;9.90;70.00
52575;DHT22;38468;48.114;-1.684;2023-02-04T07:12:34;9.90;70.00
52575;DHT22;38468;48.114;-1.684;2023-02-04T07:14:34;9.90;70.10
52575;DHT22;38468;48.114;-1.684;2023-02-04T07:16:35;9.80;70.20
52575;DHT22;38468;48.114;-1.684;2023-02-04T07:18:36;9.80;70.20
52575;DHT22;38468;48.114;-1.684;2023-02-04T07:20:36;9.80;70.20
52575;DHT22;38468;48.114;-1.684;2023-02-04T07:22:37;9.80;70.30
52575;DHT22;38468;48.114;-1.684;2023-02-04T07:24:38;9.80;70.30
52575;DHT22;38468;48.114;-1.684;2023-02-04T07:26:39;9.80;70.40
52575;DHT22;38468;48.114;-1.684;2023-02-04T07:28:40;9.80;70.40
52575;DHT22;38468;48.114;-1.684;2023-02-04T07:30:41;9.80;70.70
52575;DHT22;38468;48.114;-1.684;2023-02-04T07:32:42;9.70;70.60
52575;DHT22;38468;48.114;-1.684;2023-02-04T07:34:42;9.70;70.90
52575;DHT22;38468;48.114;-1.684;2023-02-04T07:36:43;9.70;71.00
52575;DHT22;38468;48.114;-1.684;2023-02-04T07:38:44;9.70;70.90
52575;DHT22;38468;48.114;-1.684;2023-02-04T07:40:44;9.70;71.00
52575;DHT22;38468;48.114;-1.684;2023-02-04T07:42:45;9.70;71.10
52575;DHT22;38468;48.114;-1.684;2023-02-04T07:44:46;9.70;70.90
52575;DHT22;38468;48.114;-1.684;2023-02-04T07:46:46;9.70;70.90
52575;DHT22;38468;48.114;-1.684;2023-02-04T07:48:47;9.70;70.90
52575;DHT22;38468;48.114;-1.684;2023-02-04T07:50:48;9.70;70.90
52575;DHT22;38468;48.114;-1.684;2023-02-04T07:52:48;9.80;70.90
52575;DHT22;38468;48.114;-1.684;2023-02-04T07:54:49;9.80;70.80
52575;DHT22;38468;48.114;-1.684;2023-02-04T07:56:51;9.70;71.00
52575;DHT22;38468;48.114;-1.684;2023-02-04T07:58:52;9.70;71.00
52575;DHT22;38468;48.114;-1.684;2023-02-04T08:00:52;9.70;71.10
52575;DHT22;38468;48.114;-1.684;2023-02-04T08:02:53;9.70;71.00
52575;DHT22;38468;48.114;-1.684;2023-02-04T08:04:53;9.70;71.10
52575;DHT22;38468;48.114;-1.684;2023-02-04T08:06:54;9.80;71.10
52575;DHT22;38468;48.114;-1.684;2023-02-04T08:08:55;9.70;71.10
52575;DHT22;38468;48.114;-1.684;2023-02-04T08:10:55;9.70;71.20
52575;DHT22;38468;48.114;-1.684;2023-02-04T08:12:56;9.70;71.20
52575;DHT22;38468;48.114;-1.684;2023-02-04T08:14:57;9.60;71.10
52575;DHT22;38468;48.114;-1.684;2023-02-04T08:16:57;9.60;71.40
52575;DHT22;38468;48.114;-1.684;2023-02-04T08:18:58;9.70;71.40
52575;DHT22;38468;48.114;-1.684;2023-02-04T08:20:59;9.70;71.40
52575;DHT22;38468;48.114;-1.684;2023-02-04T08:23:00;9.90;71.20
52575;DHT22;38468;48.114;-1.684;2023-02-04T08:25:02;9.90;71.10
52575;DHT22;38468;48.114;-1.684;2023-02-04T08:27:04;9.90;71.40
52575;DHT22;38468;48.114;-1.684;2023-02-04T08:29:05;9.90;71.20
52575;DHT22;38468;48.114;-1.684;2023-02-04T08:31:06;9.80;71.10
52575;DHT22;38468;48.114;-1.684;2023-02-04T08:33:11;9.80;71.30
52575;DHT22;38468;48.114;-1.684;2023-02-04T08:35:14;9.80;71.10
52575;DHT22;38468;48.114;-1.684;2023-02-04T08:37:24;9.90;71.20
52575;DHT22;38468;48.114;-1.684;2023-02-04T08:39:25;9.90;71.10
52575;DHT22;38468;48.114;-1.684;2023-02-04T08:41:26;9.90;71.10
52575;DHT22;38468;48.114;-1.684;2023-02-04T08:43:26;9.90;71.00
52575;DHT22;38468;48.114;-1.684;2023-02-04T08:45:27;10.00;71.00
52575;DHT22;38468;48.114;-1.684;2023-02-04T08:47:28;10.10;70.90
52575;DHT22;38468;48.114;-1.684;2023-02-04T08:49:28;10.00;70.90
52575;DHT22;38468;48.114;-1.684;2023-02-04T08:51:29;10.00;70.80
52575;DHT22;38468;48.114;-1.684;2023-02-04T08:53:30;10.00;70.80
52575;DHT22;38468;48.114;-1.684;2023-02-04T08:55:30;10.00;70.70
52575;DHT22;38468;48.114;-1.684;2023-02-04T08:57:31;10.00;70.80
52575;DHT22;38468;48.114;-1.684;2023-02-04T08:59:33;10.00;70.60
52575;DHT22;38468;48.114;-1.684;2023-02-04T09:01:33;10.00;70.50
52575;DHT22;38468;48.114;-1.684;2023-02-04T09:03:34;10.10;70.30
52575;DHT22;38468;48.114;-1.684;2023-02-04T09:05:35;10.00;70.30
52575;DHT22;38468;48.114;-1.684;2023-02-04T09:07:35;10.00;70.40
52575;DHT22;38468;48.114;-1.684;2023-02-04T09:09:36;10.00;70.40
52575;DHT22;38468;48.114;-1.684;2023-02-04T09:11:36;10.00;70.40
52575;DHT22;38468;48.114;-1.684;2023-02-04T09:13:38;10.10;70.30
52575;DHT22;38468;48.114;-1.684;2023-02-04T09:15:39;10.10;70.30
52575;DHT22;38468;48.114;-1.684;2023-02-04T09:17:39;10.20;70.30
52575;DHT22;38468;48.114;-1.684;2023-02-04T09:19:43;10.20;69.90
52575;DHT22;38468;48.114;-1.684;2023-02-04T09:21:43;10.10;69.90
52575;DHT22;38468;48.114;-1.684;2023-02-04T09:23:44;10.20;69.90
52575;DHT22;38468;48.114;-1.684;2023-02-04T09:25:46;10.10;69.80
52575;DHT22;38468;48.114;-1.684;2023-02-04T09:27:47;10.10;69.80
52575;DHT22;38468;48.114;-1.684;2023-02-04T09:29:48;10.20;69.70
52575;DHT22;38468;48.114;-1.684;2023-02-04T09:31:48;10.20;69.70
52575;DHT22;38468;48.114;-1.684;2023-02-04T09:33:49;10.20;69.60
52575;DHT22;38468;48.114;-1.684;2023-02-04T09:35:50;10.20;69.40
52575;DHT22;38468;48.114;-1.684;2023-02-04T09:37:50;10.30;69.40
52575;DHT22;38468;48.114;-1.684;2023-02-04T09:39:51;10.30;69.20
52575;DHT22;38468;48.114;-1.684;2023-02-04T09:41:53;10.20;69.00
52575;DHT22;38468;48.114;-1.684;2023-02-04T09:43:54;10.20;69.10
52575;DHT22;38468;48.114;-1.684;2023-02-04T09:45:55;10.20;69.10
52575;DHT22;38468;48.114;-1.684;2023-02-04T09:47:57;10.20;69.40
52575;DHT22;38468;48.114;-1.684;2023-02-04T09:49:59;10.20;69.40
52575;DHT22;38468;48.114;-1.684;2023-02-04T09:51:59;10.20;69.30
52575;DHT22;38468;48.114;-1.684;2023-02-04T09:54:14;10.20;69.50
52575;DHT22;38468;48.114;-1.684;2023-02-04T09:56:15;10.40;69.40
52575;DHT22;38468;48.114;-1.684;2023-02-04T09:58:19;10.40;69.30
52575;DHT22;38468;48.114;-1.684;2023-02-04T10:00:25;10.40;69.20
52575;DHT22;38468;48.114;-1.684;2023-02-04T10:02:25;10.40;69.10
52575;DHT22;38468;48.114;-1.684;2023-02-04T10:04:27;10.40;68.90
52575;DHT22;38468;48.114;-1.684;2023-02-04T10:06:28;10.40;68.90
52575;DHT22;38468;48.114;-1.684;2023-02-04T10:08:30;10.40;69.00
52575;DHT22;38468;48.114;-1.684;2023-02-04T10:10:32;10.50;68.90
52575;DHT22;38468;48.114;-1.684;2023-02-04T10:12:33;10.50;68.80
52575;DHT22;38468;48.114;-1.684;2023-02-04T10:14:34;10.50;69.00
52575;DHT22;38468;48.114;-1.684;2023-02-04T10:16:34;10.50;68.70
52575;DHT22;38468;48.114;-1.684;2023-02-04T10:18:37;10.40;68.60
52575;DHT22;38468;48.114;-1.684;2023-02-04T10:20:38;10.40;68.90
52575;DHT22;38468;48.114;-1.684;2023-02-04T10:22:39;10.40;68.90
52575;DHT22;38468;48.114;-1.684;2023-02-04T10:24:40;10.40;69.10
52575;DHT22;38468;48.114;-1.684;2023-02-04T10:26:40;10.40;69.40
52575;DHT22;38468;48.114;-1.684;2023-02-04T10:28:41;10.40;69.00
52575;DHT22;38468;48.114;-1.684;2023-02-04T10:30:42;10.40;69.40
52575;DHT22;38468;48.114;-1.684;2023-02-04T10:32:43;10.50;69.40
52575;DHT22;38468;48.114;-1.684;2023-02-04T10:34:44;10.50;69.40
52575;DHT22;38468;48.114;-1.684;2023-02-04T10:36:54;10.60;69.10
52575;DHT22;38468;48.114;-1.684;2023-02-04T10:39:13;10.50;69.30
52575;DHT22;38468;48.114;-1.684;2023-02-04T10:41:14;10.60;69.20
52575;DHT22;38468;48.114;-1.684;2023-02-04T10:43:17;10.60;69.20
52575;DHT22;38468;48.114;-1.684;2023-02-04T10:45:27;10.60;69.10
52575;DHT22;38468;48.114;-1.684;2023-02-04T10:47:29;10.60;69.30
52575;DHT22;38468;48.114;-1.684;2023-02-04T10:49:31;10.60;69.20
52575;DHT22;38468;48.114;-1.684;2023-02-04T10:51:32;10.60;69.30
52575;DHT22;38468;48.114;-1.684;2023-02-04T10:53:32;10.60;69.10
52575;DHT22;38468;48.114;-1.684;2023-02-04T10:55:52;10.70;69.10
52575;DHT22;38468;48.114;-1.684;2023-02-04T10:57:53;10.60;69.10
52575;DHT22;38468;48.114;-1.684;2023-02-04T10:59:57;10.60;69.30
52575;DHT22;38468;48.114;-1.684;2023-02-04T11:02:00;10.60;69.30
52575;DHT22;38468;48.114;-1.684;2023-02-04T11:04:01;10.50;69.10
52575;DHT22;38468;48.114;-1.684;2023-02-04T11:06:09;10.50;69.30
52575;DHT22;38468;48.114;-1.684;2023-02-04T11:10:29;10.60;69.30
52575;DHT22;38468;48.114;-1.684;2023-02-04T11:12:45;10.60;69.00
52575;DHT22;38468;48.114;-1.684;2023-02-04T11:14:54;10.60;68.90
52575;DHT22;38468;48.114;-1.684;2023-02-04T11:16:56;10.50;69.20
52575;DHT22;38468;48.114;-1.684;2023-02-04T11:19:03;10.60;69.20
52575;DHT22;38468;48.114;-1.684;2023-02-04T11:21:14;10.70;69.30
52575;DHT22;38468;48.114;-1.684;2023-02-04T11:23:27;10.60;69.20
52575;DHT22;38468;48.114;-1.684;2023-02-04T11:25:33;10.70;69.00
52575;DHT22;38468;48.114;-1.684;2023-02-04T11:27:38;10.60;68.50
52575;DHT22;38468;48.114;-1.684;2023-02-04T11:29:40;10.50;68.40
52575;DHT22;38468;48.114;-1.684;2023-02-04T11:33:49;10.50;68.20
52575;DHT22;38468;48.114;-1.684;2023-02-04T11:36:06;10.50;67.80
52575;DHT22;38468;48.114;-1.684;2023-02-04T11:38:24;10.60;67.60
52575;DHT22;38468;48.114;-1.684;2023-02-04T11:40:30;10.60;67.40
52575;DHT22;38468;48.114;-1.684;2023-02-04T11:42:38;10.50;67.10
52575;DHT22;38468;48.114;-1.684;2023-02-04T11:44:39;10.50;67.00
52575;DHT22;38468;48.114;-1.684;2023-02-04T11:46:40;10.60;66.70
52575;DHT22;38468;48.114;-1.684;2023-02-04T11:48:41;10.60;66.60
52575;DHT22;38468;48.114;-1.684;2023-02-04T11:50:42;10.50;66.30
52575;DHT22;38468;48.114;-1.684;2023-02-04T11:52:54;10.60;66.70
52575;DHT22;38468;48.114;-1.684;2023-02-04T11:54:57;10.60;66.50
52575;DHT22;38468;48.114;-1.684;2023-02-04T11:56:58;10.60;66.10
52575;DHT22;38468;48.114;-1.684;2023-02-04T11:58:59;10.60;66.20
52575;DHT22;38468;48.114;-1.684;2023-02-04T12:01:00;10.60;65.80
52575;DHT22;38468;48.114;-1.684;2023-02-04T12:03:05;10.60;65.70
52575;DHT22;38468;48.114;-1.684;2023-02-04T12:05:19;10.60;65.80
52575;DHT22;38468;48.114;-1.684;2023-02-04T12:07:25;10.60;65.60
52575;DHT22;38468;48.114;-1.684;2023-02-04T12:09:28;10.60;65.80
52575;DHT22;38468;48.114;-1.684;2023-02-04T12:11:29;10.60;65.30
52575;DHT22;38468;48.114;-1.684;2023-02-04T12:13:31;10.70;65.20
52575;DHT22;38468;48.114;-1.684;2023-02-04T12:15:34;10.70;65.30
52575;DHT22;38468;48.114;-1.684;2023-02-04T12:17:34;10.70;65.00
52575;DHT22;38468;48.114;-1.684;2023-02-04T12:19:35;10.60;65.00
52575;DHT22;38468;48.114;-1.684;2023-02-04T12:21:36;10.60;65.30
52575;DHT22;38468;48.114;-1.684;2023-02-04T12:23:36;10.60;64.90
52575;DHT22;38468;48.114;-1.684;2023-02-04T12:25:37;10.60;65.00
52575;DHT22;38468;48.114;-1.684;2023-02-04T12:27:37;10.60;64.90
52575;DHT22;38468;48.114;-1.684;2023-02-04T12:29:38;10.70;65.10
52575;DHT22;38468;48.114;-1.684;2023-02-04T12:31:39;10.70;65.30
52575;DHT22;38468;48.114;-1.684;2023-02-04T12:33:39;10.80;65.10
52575;DHT22;38468;48.114;-1.684;2023-02-04T12:35:40;10.70;65.40
52575;DHT22;38468;48.114;-1.684;2023-02-04T12:37:47;10.70;65.20
52575;DHT22;38468;48.114;-1.684;2023-02-04T12:39:47;10.70;65.50
52575;DHT22;38468;48.114;-1.684;2023-02-04T12:41:48;10.70;65.10